Meteorológiai információk azoknak akik tudják olvasni.

METAR = LHBP 250730Z 28013KT 9999 FEW023 OVC100 02/M02 Q0998 NOSIG

9 órás TAF = TAF TAF LHBP 242330Z 2423/2424 30008KT CAVOK BECMG 2506/2509 24010KT OVC030 TEMPO 2509/2515 24015G25KT 8000 -RA BKN013 OVC025 BECMG 2515/2518 30008KT CAVOK

24 órás TAF = TAF TAF LHBP 250515Z 2506/2606 31015KT CAVOK TEMPO 2506/2515 BKN015 BECMG 2516/2518 31006KT

ÁLLOMÁS.................... LHBP
ÉSZLELÉS................... Mon Jan 25, 08:30 CET
MOST....................... Mon Jan 25, 08:49 CET
IDŐ........................ 19 perccel ezelőtt
SZÉL....................... NY irányból 13 csomó
LÁTÁSTÁVOLSÁG.............. 6 mérföld
FELHŐZET................... borult
HŐMÉRSÉKLET................ 36°F (2°C)
HŐÉRZET.................... 27°F (-3°C)
HARMATPONT................. 28°F (-2°C)
PÁRATARTALOM............... 75%
LÉGNYOMÁS.................. 998 hPa (29.47 in Hg)

További információ LHBP állomásról

Meteor információ kérése:        állomásról.    

 

www.tothgeza.hu

 

English version
Copyright © 2003-2021 Tóth Géza Minden jog fenntartva.